EGBBEGJB

Guest
Details From EGBB - Birmingham
To EGJB - Guernsey
Flight Number -
Tags generated
Created
Modified
Stats Distance 185 nm / 343 km
Max Altitude 16,900 ft / 5,151 m
Waypoints 3
Social Downloads 0
Likes 0
Share VATSIM

Download

Looking for another format? Having issues loading an existing format? Contact us
Advertisement - Login to hide

Notes

Basic altitude profile: - Ascent Rate: 2500ft/min - Ascent Speed: 250kts - Cruise Altitude: 35000ft - Cruise Speed: 420kts - Descent Rate: 1500ft/min - Descent Speed: 250kts Options: - Use NATs: yes - Use PACOTS: no - Use low airways: no - Use high airways: yes

Route

EGBB GIBSO EGJB

ID Type Via Altitude Latitude Longitude Leg Dist Tot Dist Heading (true) Name
O EGBB APT - 0 ft / 0 m 52.45597˚ -1.75038˚ - 0 nm - Birmingham
GIBSO FIX - 16,900 ft / 5,151 m 50.74972˚ -2.51861˚ 106 nm 106 nm 196° / 195° -
O EGJB APT - 0 ft / 0 m 49.43495˚ -2.60197˚ 79 nm 185 nm 182° / 182° Guernsey

Altitude Profile

Advertisement - Login to hide

Weather


0- 5 10 15 20 25 30 35+ Temperature / ° C

Clouds and Precipitation
Forecast for 2018-05-25 18:00 UTC. Updated 6 hours ago

Ground ~20,000 ft ~40,000 ft Winds

EGBB

Details ICAO EGBB (BHX)
Name Birmingham
Region United Kingdom
Timezone Europe/London (UTC+1.0)
Stats Elevation 327 ft / 100 m (AMSL)
Location 52.455966° -1.750378°
Runways 1
Magnetic Variation 1.072° W

METAR

EGBB 252250Z 03007KT 0500 R15/1200 FG OVC002 14/14 Q1021

Decode

TAF

TAF AMD EGBB 251952Z 2519/2618 03005KT 1500 BR OVC003 TEMPO 2519/2609 1000 OVC001 PROB30 TEMPO 2521/2607 0300 FG BECMG 2609/2612 9999 NSW SCT025

Decode

Departure Runways

ID Width Length Bearing (true) Bearing (mag) Surface Threshold Offset Overrun Length
15 151 ft / 46 m 8,477 ft / 2,584 m 145.87° 146.94° Asphalt 925 ft / 282 m 0 ft / 0 m
33 151 ft / 46 m 8,477 ft / 2,584 m 325.89° 326.96° Asphalt 958 ft / 292 m 0 ft / 0 m

EGJB

Details ICAO EGJB (GCI)
Name Guernsey
Region United Kingdom
Timezone Europe/Guernsey (UTC+1.0)
Stats Elevation 336 ft / 102 m (AMSL)
Location 49.434955° -2.601970°
Runways 1
Magnetic Variation 1.003° W

METAR

EGJB 252250Z 04006KT 7000 NSC 12/11 Q1017

Decode

TAF

Not found

Destination Runways

ID Width Length Bearing (true) Bearing (mag) Surface Threshold Offset Overrun Length
09 148 ft / 45 m 4,753 ft / 1,449 m 87.56° 88.56° Asphalt 0 ft / 0 m 0 ft / 0 m
27 148 ft / 45 m 4,753 ft / 1,449 m 267.57° 268.57° Asphalt 0 ft / 0 m 272 ft / 83 m

Approach Navaids

Runway Type Ident Frequency Range Bearing (true) Bearing (mag) Slope Elevation
09 Localiser IUY 108.10 MHz 18 nm / 33 km 87.59° 88.60° - 336 ft / 102 m (AMSL)
09 Glidescope IUY 108.10 MHz 10 nm / 19 km 87.57° 88.57° 3.00° 336 ft / 102 m (AMSL)
27 Localiser IGH 108.10 MHz 18 nm / 33 km 267.57° 268.57° - 336 ft / 102 m (AMSL)
27 Glidescope IGH 108.10 MHz 10 nm / 19 km 267.57° 268.57° 3.00° 336 ft / 102 m (AMSL)
27 DME IGH 108.10 MHz 18 nm / 33 km - - - 336 ft / 102 m (AMSL)

Popular Alternatives